Etusivu
METAR-TAF:

METAR-TAF

Lentoasemat :

Fort Rucker, Alabama, Yhdysvallat

Leveyspiiri: 31-21-32N, Pituuspiiri: 085-44-54W, korkeus merenpinnasta: 78 m

Tämänhetkinen sää

Tämä raportti tehtiin 29 minuuttia sitten, kello 16.08 UTC
Tuuli 5 kn etelästä/lounaasta
Lämpötila 18°C
Kosteus 94%
Ilmanpaine 1021 hPa
Näkyvyys: 16.1 km
Pilvistä 400 ft:n korkeudessa

METAR: KLOR 261608Z AUTO 21005KT 10SM OVC004 18/17 A3016 RMK AO2 SLP196

Aika: 10:37 (16:37 UTC)


TAF: puuttuu

Säähavainnot ja -ennusteet yli 4000 lentoasemalta (METAR- ja TAF-raportit).

Käytössä olevat sääasemat on merkitty karttaan keltaisilla ja punaisilla pisteillä.

Aseta hiiri pisteen päälle nähdäksesi sääaseman nimen.

Klikkaa sitten nähdäksesi säähavainnot ja -ennusteet.

Kartan vaihtaminen: klikkaa mustalla rastilla varustettuja vihreitä pisteitä, niin voit zoomata sisään; viivalla varustettua vihreää pistettä, niin voit zoomata ulos tai vihreitä nuolia, niin pääset viereisille kartoille.


METAR-TAF: